50.0°F
Current conditions from King Hill
Updated every 5 minutes
 
  Monday November 24, 2014

Station Historical Data
Daily Summary for July 30, 2011 Units:  Both    English   Metric
« Previous Day
Next Day »
Daily Weekly Monthly Yearly Custom
  High: Low: Average:
Temperature: 79.5 °F /  26.4 °C 57.7 °F /  14.3 °C 67.6 °F /  19.8 °C
Dew Point: 68.2 °F /  20.1 °C 53.5 °F /  11.9 °C 62.2 °F /  16.8 °C
Humidity: 97% 58% 84%
Wind Speed: 11.0mph /  17.7km/h - 2.3mph /  3.7km/h
Wind Gust: 24.0mph /  38.6km/h - -
Wind- - West
Pressure: 29.98 in /  1015.1 hPa 29.73 in /  1006.7 hPa -
Precipitation: 0.20 in /  5.1 mm    
Historical Graphs
 
 
Tabular Data for July 30, 2011
Time Temperature Dew Point Pressure Wind Wind Speed Wind Gust Humidity Daily Rainfall
00:00 68.3 °F /  20.2 °C 67.1 °F /  19.5 °C 29.74in /  1007hPa Calm   3.0mph /  4.8km/h 96% 0.28in /  7.1mm
00:05 68.3 °F /  20.2 °C 67.1 °F /  19.5 °C 29.75in /  1007.3hPa Calm   3.0mph /  4.8km/h 96% 0.00in /  0mm
00:10 68.3 °F /  20.2 °C 67.1 °F /  19.5 °C 29.74in /  1007hPa Calm   3.0mph /  4.8km/h 96% 0.00in /  0mm
00:15 68.4 °F /  20.2 °C 67.2 °F /  19.6 °C 29.75in /  1007.3hPa Calm   1.0mph /  1.6km/h 96% 0.00in /  0mm
00:20 68.3 °F /  20.2 °C 67.1 °F /  19.5 °C 29.74in /  1007hPa Calm     96% 0.00in /  0mm
00:25 68.1 °F /  20.1 °C 66.9 °F /  19.4 °C 29.74in /  1007hPa Calm     96% 0.00in /  0mm
00:30 68.0 °F /  20 °C 66.8 °F /  19.3 °C 29.74in /  1007hPa Calm     96% 0.00in /  0mm
00:35 67.9 °F /  19.9 °C 66.7 °F /  19.3 °C 29.74in /  1007hPa Calm   1.0mph /  1.6km/h 96% 0.00in /  0mm
00:40 67.9 °F /  19.9 °C 66.7 °F /  19.3 °C 29.75in /  1007.3hPa SW 2.0mph /  3.2km/h 4.0mph /  6.4km/h 96% 0.00in /  0mm
00:45 68.0 °F /  20 °C 66.8 °F /  19.3 °C 29.75in /  1007.3hPa Calm   4.0mph /  6.4km/h 96% 0.00in /  0mm
00:50 68.0 °F /  20 °C 66.8 °F /  19.3 °C 29.75in /  1007.3hPa Calm   3.0mph /  4.8km/h 96% 0.00in /  0mm
00:55 68.1 °F /  20.1 °C 66.9 °F /  19.4 °C 29.75in /  1007.3hPa Calm   1.0mph /  1.6km/h 96% 0.00in /  0mm
01:00 68.2 °F /  20.1 °C 67.0 °F /  19.4 °C 29.75in /  1007.3hPa Calm   1.0mph /  1.6km/h 96% 0.00in /  0mm
01:05 68.2 °F /  20.1 °C 67.0 °F /  19.4 °C 29.75in /  1007.3hPa Calm   1.0mph /  1.6km/h 96% 0.00in /  0mm
01:10 68.3 °F /  20.2 °C 67.1 °F /  19.5 °C 29.75in /  1007.3hPa Calm   1.0mph /  1.6km/h 96% 0.00in /  0mm
01:15 68.3 °F /  20.2 °C 67.4 °F /  19.7 °C 29.75in /  1007.3hPa Calm   4.0mph /  6.4km/h 97% 0.00in /  0mm
01:20 68.2 °F /  20.1 °C 67.0 °F /  19.4 °C 29.75in /  1007.3hPa Calm   4.0mph /  6.4km/h 96% 0.00in /  0mm
01:25 68.1 °F /  20.1 °C 66.9 °F /  19.4 °C 29.75in /  1007.3hPa WSW 1.0mph /  1.6km/h 5.0mph /  8km/h 96% 0.00in /  0mm
01:30 68.1 °F /  20.1 °C 66.9 °F /  19.4 °C 29.75in /  1007.3hPa Calm   5.0mph /  8km/h 96% 0.00in /  0mm
01:40 68.2 °F /  20.1 °C 67.0 °F /  19.4 °C 29.75in /  1007.3hPa Calm   1.0mph /  1.6km/h 96% 0.00in /  0mm
01:45 68.3 °F /  20.2 °C 67.1 °F /  19.5 °C 29.75in /  1007.3hPa Calm   1.0mph /  1.6km/h 96% 0.00in /  0mm
01:50 68.2 °F /  20.1 °C 67.0 °F /  19.4 °C 29.75in /  1007.3hPa Calm   1.0mph /  1.6km/h 96% 0.00in /  0mm
01:55 68.2 °F /  20.1 °C 67.0 °F /  19.4 °C 29.75in /  1007.3hPa Calm   1.0mph /  1.6km/h 96% 0.00in /  0mm
02:00 68.3 °F /  20.2 °C 67.1 °F /  19.5 °C 29.77in /  1008hPa WNW 4.0mph /  6.4km/h 11.0mph /  17.7km/h 96% 0.00in /  0mm
02:05 67.0 °F /  19.4 °C 65.8 °F /  18.8 °C 29.79in /  1008.7hPa NW 11.0mph /  17.7km/h 24.0mph /  38.6km/h 96% 0.07in /  1.8mm
02:10 66.2 °F /  19 °C 65.0 °F /  18.3 °C 29.78in /  1008.4hPa NW 4.0mph /  6.4km/h 24.0mph /  38.6km/h 96% 0.17in /  4.3mm
02:15 65.8 °F /  18.8 °C 64.6 °F /  18.1 °C 29.77in /  1008hPa NNE 2.0mph /  3.2km/h 15.0mph /  24.1km/h 96% 0.18in /  4.6mm
02:20 65.6 °F /  18.7 °C 64.4 °F /  18 °C 29.77in /  1008hPa NNE 1.0mph /  1.6km/h 13.0mph /  20.9km/h 96% 0.18in /  4.6mm
02:25 65.4 °F /  18.6 °C 64.2 °F /  17.9 °C 29.76in /  1007.7hPa NE 3.0mph /  4.8km/h 7.0mph /  11.3km/h 96% 0.19in /  4.8mm
02:30 65.3 °F /  18.5 °C 64.1 °F /  17.8 °C 29.75in /  1007.3hPa NNE 3.0mph /  4.8km/h 9.0mph /  14.5km/h 96% 0.19in /  4.8mm
02:35 64.9 °F /  18.3 °C 63.7 °F /  17.6 °C 29.74in /  1007hPa NNE 2.0mph /  3.2km/h 9.0mph /  14.5km/h 96% 0.19in /  4.8mm
02:40 64.6 °F /  18.1 °C 63.4 °F /  17.4 °C 29.73in /  1006.7hPa Calm   7.0mph /  11.3km/h 96% 0.19in /  4.8mm
02:45 64.3 °F /  17.9 °C 63.1 °F /  17.3 °C 29.73in /  1006.7hPa North 3.0mph /  4.8km/h 8.0mph /  12.9km/h 96% 0.19in /  4.8mm
02:50 64.1 °F /  17.8 °C 62.9 °F /  17.2 °C 29.75in /  1007.3hPa Calm   8.0mph /  12.9km/h 96% 0.19in /  4.8mm
02:55 63.9 °F /  17.7 °C 62.7 °F /  17.1 °C 29.75in /  1007.3hPa Calm   7.0mph /  11.3km/h 96% 0.19in /  4.8mm
03:00 63.7 °F /  17.6 °C 62.5 °F /  16.9 °C 29.76in /  1007.7hPa ENE 1.0mph /  1.6km/h 3.0mph /  4.8km/h 96% 0.19in /  4.8mm
03:05 63.5 °F /  17.5 °C 62.3 °F /  16.8 °C 29.76in /  1007.7hPa Calm   3.0mph /  4.8km/h 96% 0.19in /  4.8mm
03:10 63.2 °F /  17.3 °C 61.7 °F /  16.5 °C 29.75in /  1007.3hPa Calm   1.0mph /  1.6km/h 95% 0.19in /  4.8mm
03:20 62.5 °F /  16.9 °C 61.0 °F /  16.1 °C 29.75in /  1007.3hPa Calm   1.0mph /  1.6km/h 95% 0.19in /  4.8mm
03:25 62.1 °F /  16.7 °C 60.7 °F /  15.9 °C 29.75in /  1007.3hPa Calm   1.0mph /  1.6km/h 95% 0.19in /  4.8mm
03:30 61.9 °F /  16.6 °C 60.5 °F /  15.8 °C 29.75in /  1007.3hPa Calm   3.0mph /  4.8km/h 95% 0.19in /  4.8mm
03:40 61.9 °F /  16.6 °C 60.7 °F /  15.9 °C 29.75in /  1007.3hPa Calm   3.0mph /  4.8km/h 96% 0.19in /  4.8mm
03:45 61.8 °F /  16.6 °C 60.6 °F /  15.9 °C 29.74in /  1007hPa Calm   1.0mph /  1.6km/h 96% 0.19in /  4.8mm
03:50 61.8 °F /  16.6 °C 60.6 °F /  15.9 °C 29.75in /  1007.3hPa Calm   4.0mph /  6.4km/h 96% 0.19in /  4.8mm
03:55 61.9 °F /  16.6 °C 60.7 °F /  15.9 °C 29.76in /  1007.7hPa Calm   4.0mph /  6.4km/h 96% 0.19in /  4.8mm
04:00 61.8 °F /  16.6 °C 60.6 °F /  15.9 °C 29.76in /  1007.7hPa West 2.0mph /  3.2km/h 4.0mph /  6.4km/h 96% 0.19in /  4.8mm
04:05 61.9 °F /  16.6 °C 60.7 °F /  15.9 °C 29.77in /  1008hPa Calm   6.0mph /  9.7km/h 96% 0.19in /  4.8mm
04:10 62.3 °F /  16.8 °C 61.1 °F /  16.2 °C 29.77in /  1008hPa WNW 1.0mph /  1.6km/h 6.0mph /  9.7km/h 96% 0.19in /  4.8mm
04:15 63.0 °F /  17.2 °C 61.8 °F /  16.6 °C 29.78in /  1008.4hPa Calm   5.0mph /  8km/h 96% 0.19in /  4.8mm
04:20 63.6 °F /  17.6 °C 62.4 °F /  16.9 °C 29.78in /  1008.4hPa Calm   4.0mph /  6.4km/h 96% 0.19in /  4.8mm
04:25 64.0 °F /  17.8 °C 63.1 °F /  17.3 °C 29.78in /  1008.4hPa WNW 5.0mph /  8km/h 9.0mph /  14.5km/h 97% 0.19in /  4.8mm
04:30 64.1 °F /  17.8 °C 62.9 °F /  17.2 °C 29.78in /  1008.4hPa WNW 4.0mph /  6.4km/h 9.0mph /  14.5km/h 96% 0.19in /  4.8mm
04:35 64.2 °F /  17.9 °C 63.0 °F /  17.2 °C 29.78in /  1008.4hPa WNW 1.0mph /  1.6km/h 8.0mph /  12.9km/h 96% 0.19in /  4.8mm
04:40 64.1 °F /  17.8 °C 62.9 °F /  17.2 °C 29.78in /  1008.4hPa Calm   7.0mph /  11.3km/h 96% 0.19in /  4.8mm
04:45 63.9 °F /  17.7 °C 62.7 °F /  17.1 °C 29.78in /  1008.4hPa Calm   1.0mph /  1.6km/h 96% 0.19in /  4.8mm
04:50 63.5 °F /  17.5 °C 62.3 °F /  16.8 °C 29.78in /  1008.4hPa Calm     96% 0.19in /  4.8mm
04:55 63.0 °F /  17.2 °C 61.8 °F /  16.6 °C 29.78in /  1008.4hPa Calm     96% 0.19in /  4.8mm
05:00 62.5 °F /  16.9 °C 61.3 °F /  16.3 °C 29.79in /  1008.7hPa Calm     96% 0.19in /  4.8mm
05:05 62.1 °F /  16.7 °C 60.9 °F /  16.1 °C 29.79in /  1008.7hPa Calm     96% 0.19in /  4.8mm
05:10 61.8 °F /  16.6 °C 60.6 °F /  15.9 °C 29.80in /  1009hPa Calm     96% 0.19in /  4.8mm
05:15 61.5 °F /  16.4 °C 60.3 °F /  15.7 °C 29.80in /  1009hPa Calm   1.0mph /  1.6km/h 96% 0.19in /  4.8mm
05:20 61.2 °F /  16.2 °C 60.1 °F /  15.6 °C 29.80in /  1009hPa Calm   1.0mph /  1.6km/h 96% 0.19in /  4.8mm
05:25 61.0 °F /  16.1 °C 59.9 °F /  15.5 °C 29.81in /  1009.4hPa WNW 1.0mph /  1.6km/h 3.0mph /  4.8km/h 96% 0.19in /  4.8mm
05:30 61.2 °F /  16.2 °C 60.1 °F /  15.6 °C 29.81in /  1009.4hPa Calm   3.0mph /  4.8km/h 96% 0.19in /  4.8mm
05:35 61.4 °F /  16.3 °C 60.2 °F /  15.7 °C 29.82in /  1009.7hPa Calm     96% 0.20in /  5.1mm
05:40 61.5 °F /  16.4 °C 60.3 °F /  15.7 °C 29.82in /  1009.7hPa Calm     96% 0.20in /  5.1mm
05:45 61.5 °F /  16.4 °C 60.3 °F /  15.7 °C 29.82in /  1009.7hPa WNW 1.0mph /  1.6km/h 4.0mph /  6.4km/h 96% 0.20in /  5.1mm
05:50 61.5 °F /  16.4 °C 60.3 °F /  15.7 °C 29.82in /  1009.7hPa Calm   4.0mph /  6.4km/h 96% 0.20in /  5.1mm
05:55 61.4 °F /  16.3 °C 60.2 °F /  15.7 °C 29.83in /  1010hPa NW 1.0mph /  1.6km/h 6.0mph /  9.7km/h 96% 0.20in /  5.1mm
06:00 61.6 °F /  16.4 °C 60.4 °F /  15.8 °C 29.83in /  1010hPa NE 1.0mph /  1.6km/h 6.0mph /  9.7km/h 96% 0.20in /  5.1mm
06:10 62.2 °F /  16.8 °C 61.0 °F /  16.1 °C 29.83in /  1010hPa NNW 1.0mph /  1.6km/h 7.0mph /  11.3km/h 96% 0.20in /  5.1mm
06:15 62.0 °F /  16.7 °C 60.8 °F /  16 °C 29.84in /  1010.4hPa NW 1.0mph /  1.6km/h 7.0mph /  11.3km/h 96% 0.20in /  5.1mm
06:20 61.6 °F /  16.4 °C 60.4 °F /  15.8 °C 29.84in /  1010.4hPa NW 2.0mph /  3.2km/h 12.0mph /  19.3km/h 96% 0.20in /  5.1mm
06:25 61.3 °F /  16.3 °C 60.2 °F /  15.7 °C 29.84in /  1010.4hPa NW 4.0mph /  6.4km/h 12.0mph /  19.3km/h 96% 0.20in /  5.1mm
06:35 61.0 °F /  16.1 °C 59.9 °F /  15.5 °C 29.84in /  1010.4hPa NW 1.0mph /  1.6km/h 12.0mph /  19.3km/h 96% 0.20in /  5.1mm
06:40 61.1 °F /  16.2 °C 60.0 °F /  15.6 °C 29.84in /  1010.4hPa WNW 1.0mph /  1.6km/h 6.0mph /  9.7km/h 96% 0.20in /  5.1mm
06:45 61.1 °F /  16.2 °C 60.0 °F /  15.6 °C 29.85in /  1010.7hPa Calm   6.0mph /  9.7km/h 96% 0.20in /  5.1mm
06:50 61.1 °F /  16.2 °C 60.0 °F /  15.6 °C 29.85in /  1010.7hPa Calm   4.0mph /  6.4km/h 96% 0.20in /  5.1mm
06:55 61.1 °F /  16.2 °C 60.0 °F /  15.6 °C 29.85in /  1010.7hPa Calm   7.0mph /  11.3km/h 96% 0.20in /  5.1mm
07:00 61.2 °F /  16.2 °C 60.1 °F /  15.6 °C 29.85in /  1010.7hPa Calm   7.0mph /  11.3km/h 96% 0.20in /  5.1mm
07:05 61.4 °F /  16.3 °C 60.2 °F /  15.7 °C 29.85in /  1010.7hPa Calm   4.0mph /  6.4km/h 96% 0.20in /  5.1mm
07:15 61.8 °F /  16.6 °C 60.6 °F /  15.9 °C 29.86in /  1011.1hPa Calm   7.0mph /  11.3km/h 96% 0.20in /  5.1mm
07:20 61.9 °F /  16.6 °C 60.7 °F /  15.9 °C 29.86in /  1011.1hPa NW 1.0mph /  1.6km/h 7.0mph /  11.3km/h 96% 0.20in /  5.1mm
07:25 61.9 °F /  16.6 °C 60.7 °F /  15.9 °C 29.86in /  1011.1hPa WNW 2.0mph /  3.2km/h 8.0mph /  12.9km/h 96% 0.20in /  5.1mm
07:30 62.0 °F /  16.7 °C 60.8 °F /  16 °C 29.86in /  1011.1hPa NW 4.0mph /  6.4km/h 9.0mph /  14.5km/h 96% 0.20in /  5.1mm
07:35 62.2 °F /  16.8 °C 61.0 °F /  16.1 °C 29.86in /  1011.1hPa Calm   9.0mph /  14.5km/h 96% 0.20in /  5.1mm
07:40 62.3 °F /  16.8 °C 61.1 °F /  16.2 °C 29.86in /  1011.1hPa NNW 2.0mph /  3.2km/h 7.0mph /  11.3km/h 96% 0.20in /  5.1mm
07:45 62.3 °F /  16.8 °C 61.1 °F /  16.2 °C 29.86in /  1011.1hPa NW 1.0mph /  1.6km/h 8.0mph /  12.9km/h 96% 0.20in /  5.1mm
07:50 62.5 °F /  16.9 °C 61.3 °F /  16.3 °C 29.87in /  1011.4hPa Calm   8.0mph /  12.9km/h 96% 0.20in /  5.1mm
07:55 62.8 °F /  17.1 °C 61.6 °F /  16.4 °C 29.87in /  1011.4hPa Calm   5.0mph /  8km/h 96% 0.20in /  5.1mm
08:00 62.9 °F /  17.2 °C 61.7 °F /  16.5 °C 29.87in /  1011.4hPa Calm   1.0mph /  1.6km/h 96% 0.20in /  5.1mm
08:05 63.1 °F /  17.3 °C 62.2 °F /  16.8 °C 29.87in /  1011.4hPa Calm   1.0mph /  1.6km/h 97% 0.20in /  5.1mm
08:10 63.5 °F /  17.5 °C 62.6 °F /  17 °C 29.87in /  1011.4hPa NW 1.0mph /  1.6km/h 5.0mph /  8km/h 97% 0.20in /  5.1mm
08:15 63.5 °F /  17.5 °C 62.3 °F /  16.8 °C 29.88in /  1011.7hPa NW 1.0mph /  1.6km/h 5.0mph /  8km/h 96% 0.20in /  5.1mm
08:20 63.6 °F /  17.6 °C 62.4 °F /  16.9 °C 29.88in /  1011.7hPa WNW 2.0mph /  3.2km/h 8.0mph /  12.9km/h 96% 0.20in /  5.1mm
08:25 63.6 °F /  17.6 °C 62.4 °F /  16.9 °C 29.88in /  1011.7hPa NW 1.0mph /  1.6km/h 8.0mph /  12.9km/h 96% 0.20in /  5.1mm
08:35 63.7 °F /  17.6 °C 62.5 °F /  16.9 °C 29.88in /  1011.7hPa Calm   4.0mph /  6.4km/h 96% 0.20in /  5.1mm
08:40 63.5 °F /  17.5 °C 62.3 °F /  16.8 °C 29.88in /  1011.7hPa Calm   4.0mph /  6.4km/h 96% 0.20in /  5.1mm
08:45 63.7 °F /  17.6 °C 62.5 °F /  16.9 °C 29.88in /  1011.7hPa Calm   1.0mph /  1.6km/h 96% 0.20in /  5.1mm
08:50 63.8 °F /  17.7 °C 62.6 °F /  17 °C 29.89in /  1012.1hPa Calm   2.0mph /  3.2km/h 96% 0.20in /  5.1mm
08:55 63.8 °F /  17.7 °C 62.6 °F /  17 °C 29.89in /  1012.1hPa WNW 1.0mph /  1.6km/h 7.0mph /  11.3km/h 96% 0.20in /  5.1mm
09:05 64.1 °F /  17.8 °C 62.9 °F /  17.2 °C 29.89in /  1012.1hPa NW 2.0mph /  3.2km/h 6.0mph /  9.7km/h 96% 0.20in /  5.1mm
09:10 64.1 °F /  17.8 °C 62.9 °F /  17.2 °C 29.89in /  1012.1hPa NW 3.0mph /  4.8km/h 8.0mph /  12.9km/h 96% 0.20in /  5.1mm
09:15 63.9 °F /  17.7 °C 62.7 °F /  17.1 °C 29.89in /  1012.1hPa NW 1.0mph /  1.6km/h 8.0mph /  12.9km/h 96% 0.20in /  5.1mm
09:20 63.9 °F /  17.7 °C 62.7 °F /  17.1 °C 29.89in /  1012.1hPa NW 1.0mph /  1.6km/h 7.0mph /  11.3km/h 96% 0.20in /  5.1mm
09:25 63.9 °F /  17.7 °C 62.7 °F /  17.1 °C 29.89in /  1012.1hPa Calm   5.0mph /  8km/h 96% 0.20in /  5.1mm
09:30 64.0 °F /  17.8 °C 62.8 °F /  17.1 °C 29.90in /  1012.4hPa NW 4.0mph /  6.4km/h 8.0mph /  12.9km/h 96% 0.20in /  5.1mm
09:35 63.9 °F /  17.7 °C 62.4 °F /  16.9 °C 29.90in /  1012.4hPa Calm   8.0mph /  12.9km/h 95% 0.20in /  5.1mm
09:40 64.0 °F /  17.8 °C 62.5 °F /  16.9 °C 29.90in /  1012.4hPa Calm   7.0mph /  11.3km/h 95% 0.20in /  5.1mm
09:45 64.2 °F /  17.9 °C 63.0 °F /  17.2 °C 29.90in /  1012.4hPa Calm   4.0mph /  6.4km/h 96% 0.20in /  5.1mm
09:55 64.4 °F /  18 °C 62.9 °F /  17.2 °C 29.90in /  1012.4hPa Calm   1.0mph /  1.6km/h 95% 0.20in /  5.1mm
10:00 64.5 °F /  18.1 °C 63.0 °F /  17.2 °C 29.90in /  1012.4hPa North 1.0mph /  1.6km/h 5.0mph /  8km/h 95% 0.20in /  5.1mm
10:05 64.7 °F /  18.2 °C 63.2 °F /  17.3 °C 29.90in /  1012.4hPa Calm   5.0mph /  8km/h 95% 0.20in /  5.1mm
10:10 64.8 °F /  18.2 °C 63.3 °F /  17.4 °C 29.90in /  1012.4hPa Calm   3.0mph /  4.8km/h 95% 0.20in /  5.1mm
10:15 65.0 °F /  18.3 °C 63.5 °F /  17.5 °C 29.90in /  1012.4hPa Calm   3.0mph /  4.8km/h 95% 0.20in /  5.1mm
10:20 65.2 °F /  18.4 °C 63.7 °F /  17.6 °C 29.90in /  1012.4hPa Calm   3.0mph /  4.8km/h 95% 0.20in /  5.1mm
10:25 65.3 °F /  18.5 °C 63.5 °F /  17.5 °C 29.90in /  1012.4hPa NE 1.0mph /  1.6km/h 4.0mph /  6.4km/h 94% 0.20in /  5.1mm
10:30 65.8 °F /  18.8 °C 64.0 °F /  17.8 °C 29.90in /  1012.4hPa Calm   4.0mph /  6.4km/h 94% 0.20in /  5.1mm
10:35 66.1 °F /  18.9 °C 64.0 °F /  17.8 °C 29.91in /  1012.8hPa NNE 1.0mph /  1.6km/h 3.0mph /  4.8km/h 93% 0.20in /  5.1mm
10:40 66.9 °F /  19.4 °C 65.1 °F /  18.4 °C 29.91in /  1012.8hPa North 1.0mph /  1.6km/h 4.0mph /  6.4km/h 94% 0.20in /  5.1mm
10:45 67.2 °F /  19.6 °C 65.1 °F /  18.4 °C 29.91in /  1012.8hPa Calm   4.0mph /  6.4km/h 93% 0.20in /  5.1mm
10:50 67.0 °F /  19.4 °C 63.7 °F /  17.6 °C 29.91in /  1012.8hPa NW 2.0mph /  3.2km/h 6.0mph /  9.7km/h 89% 0.20in /  5.1mm
10:55 66.8 °F /  19.3 °C 63.8 °F /  17.7 °C 29.92in /  1013.1hPa NW 2.0mph /  3.2km/h 6.0mph /  9.7km/h 90% 0.20in /  5.1mm
11:00 66.7 °F /  19.3 °C 63.4 °F /  17.4 °C 29.92in /  1013.1hPa NW 3.0mph /  4.8km/h 5.0mph /  8km/h 89% 0.20in /  5.1mm
11:05 66.5 °F /  19.2 °C 63.5 °F /  17.5 °C 29.92in /  1013.1hPa Calm   7.0mph /  11.3km/h 90% 0.20in /  5.1mm
11:10 66.5 °F /  19.2 °C 63.8 °F /  17.7 °C 29.92in /  1013.1hPa Calm   7.0mph /  11.3km/h 91% 0.20in /  5.1mm
11:15 66.6 °F /  19.2 °C 63.9 °F /  17.7 °C 29.92in /  1013.1hPa Calm   6.0mph /  9.7km/h 91% 0.20in /  5.1mm
11:20 66.6 °F /  19.2 °C 63.9 °F /  17.7 °C 29.93in /  1013.4hPa Calm   3.0mph /  4.8km/h 91% 0.20in /  5.1mm
11:25 66.6 °F /  19.2 °C 63.9 °F /  17.7 °C 29.93in /  1013.4hPa NW 1.0mph /  1.6km/h 3.0mph /  4.8km/h 91% 0.20in /  5.1mm
11:30 66.4 °F /  19.1 °C 63.4 °F /  17.4 °C 29.93in /  1013.4hPa Calm   4.0mph /  6.4km/h 90% 0.20in /  5.1mm
11:35 66.4 °F /  19.1 °C 63.7 °F /  17.6 °C 29.93in /  1013.4hPa NW 2.0mph /  3.2km/h 5.0mph /  8km/h 91% 0.20in /  5.1mm
11:40 66.3 °F /  19.1 °C 63.6 °F /  17.6 °C 29.93in /  1013.4hPa Calm   5.0mph /  8km/h 91% 0.20in /  5.1mm
11:45 66.3 °F /  19.1 °C 63.3 °F /  17.4 °C 29.93in /  1013.4hPa NW 1.0mph /  1.6km/h 6.0mph /  9.7km/h 90% 0.20in /  5.1mm
11:50 66.7 °F /  19.3 °C 64.0 °F /  17.8 °C 29.93in /  1013.4hPa NW 2.0mph /  3.2km/h 6.0mph /  9.7km/h 91% 0.20in /  5.1mm
11:55 67.1 °F /  19.5 °C 64.4 °F /  18 °C 29.93in /  1013.4hPa Calm   4.0mph /  6.4km/h 91% 0.20in /  5.1mm
12:00 67.5 °F /  19.7 °C 64.1 °F /  17.8 °C 29.93in /  1013.4hPa NW 6.0mph /  9.7km/h 9.0mph /  14.5km/h 89% 0.20in /  5.1mm
12:05 67.6 °F /  19.8 °C 64.2 °F /  17.9 °C 29.94in /  1013.8hPa WNW 3.0mph /  4.8km/h 9.0mph /  14.5km/h 89% 0.20in /  5.1mm
12:15 68.0 °F /  20 °C 64.3 °F /  17.9 °C 29.93in /  1013.4hPa Calm   5.0mph /  8km/h 88% 0.20in /  5.1mm
12:20 68.7 °F /  20.4 °C 65.3 °F /  18.5 °C 29.93in /  1013.4hPa WNW 3.0mph /  4.8km/h 8.0mph /  12.9km/h 89% 0.20in /  5.1mm
12:25 69.2 °F /  20.7 °C 64.8 °F /  18.2 °C 29.94in /  1013.8hPa NW 1.0mph /  1.6km/h 8.0mph /  12.9km/h 86% 0.20in /  5.1mm
12:30 69.7 °F /  20.9 °C 65.3 °F /  18.5 °C 29.93in /  1013.4hPa NW 2.0mph /  3.2km/h 7.0mph /  11.3km/h 86% 0.20in /  5.1mm
12:35 70.4 °F /  21.3 °C 66.3 °F /  19.1 °C 29.93in /  1013.4hPa NW 1.0mph /  1.6km/h 6.0mph /  9.7km/h 87% 0.20in /  5.1mm
12:40 70.8 °F /  21.6 °C 65.0 °F /  18.3 °C 29.93in /  1013.4hPa NW 4.0mph /  6.4km/h 7.0mph /  11.3km/h 82% 0.20in /  5.1mm
12:45 71.1 °F /  21.7 °C 66.0 °F /  18.9 °C 29.93in /  1013.4hPa NW 1.0mph /  1.6km/h 7.0mph /  11.3km/h 84% 0.20in /  5.1mm
12:50 71.5 °F /  21.9 °C 65.4 °F /  18.6 °C 29.93in /  1013.4hPa NW 2.0mph /  3.2km/h 7.0mph /  11.3km/h 81% 0.20in /  5.1mm
12:55 72.4 °F /  22.4 °C 67.3 °F /  19.6 °C 29.93in /  1013.4hPa Calm   7.0mph /  11.3km/h 84% 0.20in /  5.1mm
13:00 73.5 °F /  23.1 °C 66.2 °F /  19 °C 29.93in /  1013.4hPa NW 5.0mph /  8km/h 8.0mph /  12.9km/h 78% 0.20in /  5.1mm
13:05 74.1 °F /  23.4 °C 67.2 °F /  19.6 °C 29.93in /  1013.4hPa WNW 2.0mph /  3.2km/h 10.0mph /  16.1km/h 79% 0.20in /  5.1mm
13:10 74.7 °F /  23.7 °C 66.3 °F /  19.1 °C 29.93in /  1013.4hPa WNW 5.0mph /  8km/h 10.0mph /  16.1km/h 75% 0.20in /  5.1mm
13:15 74.3 °F /  23.5 °C 67.0 °F /  19.4 °C 29.93in /  1013.4hPa NW 1.0mph /  1.6km/h 10.0mph /  16.1km/h 78% 0.20in /  5.1mm
13:20 74.5 °F /  23.6 °C 66.8 °F /  19.3 °C 29.93in /  1013.4hPa NNE 2.0mph /  3.2km/h 9.0mph /  14.5km/h 77% 0.20in /  5.1mm
13:25 74.8 °F /  23.8 °C 66.7 °F /  19.3 °C 29.93in /  1013.4hPa North 2.0mph /  3.2km/h 8.0mph /  12.9km/h 76% 0.20in /  5.1mm
13:30 75.1 °F /  23.9 °C 66.6 °F /  19.2 °C 29.93in /  1013.4hPa North 1.0mph /  1.6km/h 6.0mph /  9.7km/h 75% 0.20in /  5.1mm
13:35 75.3 °F /  24.1 °C 65.7 °F /  18.7 °C 29.93in /  1013.4hPa NW 3.0mph /  4.8km/h 6.0mph /  9.7km/h 72% 0.20in /  5.1mm
13:40 74.8 °F /  23.8 °C 65.2 °F /  18.4 °C 29.93in /  1013.4hPa NW 1.0mph /  1.6km/h 6.0mph /  9.7km/h 72% 0.20in /  5.1mm
13:45 74.8 °F /  23.8 °C 67.1 °F /  19.5 °C 29.94in /  1013.8hPa Calm   6.0mph /  9.7km/h 77% 0.20in /  5.1mm
13:50 75.4 °F /  24.1 °C 65.8 °F /  18.8 °C 29.94in /  1013.8hPa NNE 3.0mph /  4.8km/h 7.0mph /  11.3km/h 72% 0.20in /  5.1mm
13:55 75.6 °F /  24.2 °C 66.7 °F /  19.3 °C 29.94in /  1013.8hPa Calm   7.0mph /  11.3km/h 74% 0.20in /  5.1mm
14:00 75.7 °F /  24.3 °C 66.0 °F /  18.9 °C 29.94in /  1013.8hPa North 2.0mph /  3.2km/h 7.0mph /  11.3km/h 72% 0.20in /  5.1mm
14:05 75.9 °F /  24.4 °C 67.0 °F /  19.4 °C 29.94in /  1013.8hPa Calm   7.0mph /  11.3km/h 74% 0.20in /  5.1mm
14:10 76.3 °F /  24.6 °C 67.0 °F /  19.4 °C 29.94in /  1013.8hPa NW 2.0mph /  3.2km/h 6.0mph /  9.7km/h 73% 0.20in /  5.1mm
14:15 76.7 °F /  24.8 °C 68.2 °F /  20.1 °C 29.94in /  1013.8hPa NW 2.0mph /  3.2km/h 11.0mph /  17.7km/h 75% 0.20in /  5.1mm
14:20 77.4 °F /  25.2 °C 66.4 °F /  19.1 °C 29.94in /  1013.8hPa WNW 1.0mph /  1.6km/h 11.0mph /  17.7km/h 69% 0.20in /  5.1mm
14:25 77.6 °F /  25.3 °C 67.1 °F /  19.5 °C 29.94in /  1013.8hPa Calm   8.0mph /  12.9km/h 70% 0.20in /  5.1mm
14:30 77.5 °F /  25.3 °C 66.5 °F /  19.2 °C 29.94in /  1013.8hPa Calm   9.0mph /  14.5km/h 69% 0.20in /  5.1mm
14:35 77.6 °F /  25.3 °C 66.2 °F /  19 °C 29.94in /  1013.8hPa NE 2.0mph /  3.2km/h 9.0mph /  14.5km/h 68% 0.20in /  5.1mm
14:40 77.6 °F /  25.3 °C 66.2 °F /  19 °C 29.94in /  1013.8hPa NW 3.0mph /  4.8km/h 9.0mph /  14.5km/h 68% 0.20in /  5.1mm
14:45 77.9 °F /  25.5 °C 66.5 °F /  19.2 °C 29.94in /  1013.8hPa NW 1.0mph /  1.6km/h 9.0mph /  14.5km/h 68% 0.20in /  5.1mm
14:50 78.0 °F /  25.6 °C 65.7 °F /  18.7 °C 29.94in /  1013.8hPa NW 2.0mph /  3.2km/h 7.0mph /  11.3km/h 66% 0.20in /  5.1mm
14:55 77.8 °F /  25.4 °C 66.4 °F /  19.1 °C 29.93in /  1013.4hPa NW 2.0mph /  3.2km/h 8.0mph /  12.9km/h 68% 0.20in /  5.1mm
15:00 77.6 °F /  25.3 °C 64.9 °F /  18.3 °C 29.93in /  1013.4hPa NW 4.0mph /  6.4km/h 11.0mph /  17.7km/h 65% 0.20in /  5.1mm
15:05 77.8 °F /  25.4 °C 66.0 °F /  18.9 °C 29.93in /  1013.4hPa WNW 3.0mph /  4.8km/h 13.0mph /  20.9km/h 67% 0.20in /  5.1mm
15:10 78.1 °F /  25.6 °C 66.7 °F /  19.3 °C 29.93in /  1013.4hPa WNW 1.0mph /  1.6km/h 13.0mph /  20.9km/h 68% 0.20in /  5.1mm
15:15 78.4 °F /  25.8 °C 65.7 °F /  18.7 °C 29.93in /  1013.4hPa NW 2.0mph /  3.2km/h 9.0mph /  14.5km/h 65% 0.20in /  5.1mm
15:20 78.8 °F /  26 °C 68.2 °F /  20.1 °C 29.93in /  1013.4hPa Calm   7.0mph /  11.3km/h 70% 0.20in /  5.1mm
15:25 79.1 °F /  26.2 °C 67.2 °F /  19.6 °C 29.92in /  1013.1hPa Calm   7.0mph /  11.3km/h 67% 0.20in /  5.1mm
15:30 79.5 °F /  26.4 °C 65.8 °F /  18.8 °C 29.93in /  1013.4hPa NW 5.0mph /  8km/h 9.0mph /  14.5km/h 63% 0.20in /  5.1mm
15:35 79.0 °F /  26.1 °C 63.5 °F /  17.5 °C 29.93in /  1013.4hPa WNW 8.0mph /  12.9km/h 12.0mph /  19.3km/h 59% 0.20in /  5.1mm
15:40 78.7 °F /  25.9 °C 66.4 °F /  19.1 °C 29.92in /  1013.1hPa WNW 5.0mph /  8km/h 12.0mph /  19.3km/h 66% 0.20in /  5.1mm
15:45 78.6 °F /  25.9 °C 66.3 °F /  19.1 °C 29.92in /  1013.1hPa NNE 1.0mph /  1.6km/h 11.0mph /  17.7km/h 66% 0.20in /  5.1mm
15:50 78.7 °F /  25.9 °C 66.0 °F /  18.9 °C 29.92in /  1013.1hPa NW 1.0mph /  1.6km/h 11.0mph /  17.7km/h 65% 0.20in /  5.1mm
15:55 78.7 °F /  25.9 °C 66.0 °F /  18.9 °C 29.92in /  1013.1hPa Calm   10.0mph /  16.1km/h 65% 0.20in /  5.1mm
16:00 79.0 °F /  26.1 °C 67.5 °F /  19.7 °C 29.92in /  1013.1hPa Calm   9.0mph /  14.5km/h 68% 0.20in /  5.1mm
16:10 79.1 °F /  26.2 °C 65.9 °F /  18.8 °C 29.91in /  1012.8hPa WNW 6.0mph /  9.7km/h 12.0mph /  19.3km/h 64% 0.20in /  5.1mm
16:15 78.7 °F /  25.9 °C 66.4 °F /  19.1 °C 29.92in /  1013.1hPa NW 1.0mph /  1.6km/h 12.0mph /  19.3km/h 66% 0.20in /  5.1mm
16:20 78.7 °F /  25.9 °C 66.0 °F /  18.9 °C 29.92in /  1013.1hPa NW 1.0mph /  1.6km/h 10.0mph /  16.1km/h 65% 0.20in /  5.1mm
16:25 78.9 °F /  26.1 °C 65.7 °F /  18.7 °C 29.91in /  1012.8hPa WNW 2.0mph /  3.2km/h 7.0mph /  11.3km/h 64% 0.20in /  5.1mm
16:30 79.3 °F /  26.3 °C 66.1 °F /  18.9 °C 29.91in /  1012.8hPa NW 2.0mph /  3.2km/h 9.0mph /  14.5km/h 64% 0.20in /  5.1mm
16:35 79.4 °F /  26.3 °C 66.6 °F /  19.2 °C 29.91in /  1012.8hPa NE 1.0mph /  1.6km/h 9.0mph /  14.5km/h 65% 0.20in /  5.1mm
16:40 79.4 °F /  26.3 °C 66.2 °F /  19 °C 29.91in /  1012.8hPa NW 2.0mph /  3.2km/h 9.0mph /  14.5km/h 64% 0.20in /  5.1mm
16:45 79.2 °F /  26.2 °C 66.4 °F /  19.1 °C 29.91in /  1012.8hPa Calm   9.0mph /  14.5km/h 65% 0.20in /  5.1mm
16:50 79.1 °F /  26.2 °C 64.5 °F /  18.1 °C 29.91in /  1012.8hPa NW 5.0mph /  8km/h 11.0mph /  17.7km/h 61% 0.20in /  5.1mm
16:55 78.9 °F /  26.1 °C 65.7 °F /  18.7 °C 29.91in /  1012.8hPa NW 3.0mph /  4.8km/h 11.0mph /  17.7km/h 64% 0.20in /  5.1mm
17:00 78.7 °F /  25.9 °C 64.1 °F /  17.8 °C 29.91in /  1012.8hPa NW 6.0mph /  9.7km/h 9.0mph /  14.5km/h 61% 0.20in /  5.1mm
17:05 78.4 °F /  25.8 °C 63.9 °F /  17.7 °C 29.91in /  1012.8hPa WNW 5.0mph /  8km/h 11.0mph /  17.7km/h 61% 0.20in /  5.1mm
17:10 78.2 °F /  25.7 °C 65.0 °F /  18.3 °C 29.91in /  1012.8hPa NW 3.0mph /  4.8km/h 11.0mph /  17.7km/h 64% 0.20in /  5.1mm
17:15 78.6 °F /  25.9 °C 65.0 °F /  18.3 °C 29.91in /  1012.8hPa NW 1.0mph /  1.6km/h 9.0mph /  14.5km/h 63% 0.20in /  5.1mm
17:20 78.7 °F /  25.9 °C 62.7 °F /  17.1 °C 29.91in /  1012.8hPa North 1.0mph /  1.6km/h 9.0mph /  14.5km/h 58% 0.20in /  5.1mm
17:25 78.7 °F /  25.9 °C 62.7 °F /  17.1 °C 29.92in /  1013.1hPa NW 3.0mph /  4.8km/h 9.0mph /  14.5km/h 58% 0.20in /  5.1mm
17:30 78.7 °F /  25.9 °C 63.2 °F /  17.3 °C 29.91in /  1012.8hPa NW 4.0mph /  6.4km/h 10.0mph /  16.1km/h 59% 0.20in /  5.1mm
17:35 78.4 °F /  25.8 °C 63.4 °F /  17.4 °C 29.91in /  1012.8hPa WNW 5.0mph /  8km/h 10.0mph /  16.1km/h 60% 0.20in /  5.1mm
17:40 78.3 °F /  25.7 °C 64.7 °F /  18.2 °C 29.91in /  1012.8hPa ENE 1.0mph /  1.6km/h 10.0mph /  16.1km/h 63% 0.20in /  5.1mm
17:45 78.4 °F /  25.8 °C 62.9 °F /  17.2 °C 29.91in /  1012.8hPa NW 1.0mph /  1.6km/h 6.0mph /  9.7km/h 59% 0.20in /  5.1mm
17:50 78.5 °F /  25.8 °C 62.5 °F /  16.9 °C 29.91in /  1012.8hPa NW 3.0mph /  4.8km/h 10.0mph /  16.1km/h 58% 0.20in /  5.1mm
17:55 78.5 °F /  25.8 °C 63.0 °F /  17.2 °C 29.91in /  1012.8hPa WNW 4.0mph /  6.4km/h 10.0mph /  16.1km/h 59% 0.20in /  5.1mm
18:00 78.2 °F /  25.7 °C 62.2 °F /  16.8 °C 29.92in /  1013.1hPa NW 1.0mph /  1.6km/h 9.0mph /  14.5km/h 58% 0.20in /  5.1mm
18:05 78.3 °F /  25.7 °C 63.3 °F /  17.4 °C 29.91in /  1012.8hPa NW 1.0mph /  1.6km/h 8.0mph /  12.9km/h 60% 0.20in /  5.1mm
18:10 78.3 °F /  25.7 °C 62.8 °F /  17.1 °C 29.92in /  1013.1hPa NW 1.0mph /  1.6km/h 6.0mph /  9.7km/h 59% 0.20in /  5.1mm
18:15 78.1 °F /  25.6 °C 62.6 °F /  17 °C 29.92in /  1013.1hPa NW 3.0mph /  4.8km/h 8.0mph /  12.9km/h 59% 0.20in /  5.1mm
18:20 77.8 °F /  25.4 °C 61.9 °F /  16.6 °C 29.92in /  1013.1hPa NW 1.0mph /  1.6km/h 8.0mph /  12.9km/h 58% 0.20in /  5.1mm
18:25 77.3 °F /  25.2 °C 61.4 °F /  16.3 °C 29.92in /  1013.1hPa NW 2.0mph /  3.2km/h 13.0mph /  20.9km/h 58% 0.20in /  5.1mm
18:30 77.0 °F /  25 °C 63.0 °F /  17.2 °C 29.92in /  1013.1hPa Calm   13.0mph /  20.9km/h 62% 0.20in /  5.1mm
18:35 76.5 °F /  24.7 °C 62.5 °F /  16.9 °C 29.92in /  1013.1hPa NW 2.0mph /  3.2km/h 9.0mph /  14.5km/h 62% 0.20in /  5.1mm
18:40 76.0 °F /  24.4 °C 62.1 °F /  16.7 °C 29.92in /  1013.1hPa NW 1.0mph /  1.6km/h 8.0mph /  12.9km/h 62% 0.20in /  5.1mm
18:45 75.9 °F /  24.4 °C 62.0 °F /  16.7 °C 29.92in /  1013.1hPa NW 1.0mph /  1.6km/h 6.0mph /  9.7km/h 62% 0.20in /  5.1mm
18:50 75.7 °F /  24.3 °C 62.2 °F /  16.8 °C 29.92in /  1013.1hPa Calm   10.0mph /  16.1km/h 63% 0.20in /  5.1mm
18:55 75.3 °F /  24.1 °C 59.5 °F /  15.3 °C 29.92in /  1013.1hPa NW 2.0mph /  3.2km/h 10.0mph /  16.1km/h 58% 0.20in /  5.1mm
19:00 75.0 °F /  23.9 °C 62.0 °F /  16.7 °C 29.92in /  1013.1hPa Calm   9.0mph /  14.5km/h 64% 0.20in /  5.1mm
19:05 74.5 °F /  23.6 °C 60.2 °F /  15.7 °C 29.92in /  1013.1hPa Calm   6.0mph /  9.7km/h 61% 0.20in /  5.1mm
19:10 74.1 °F /  23.4 °C 59.3 °F /  15.2 °C 29.92in /  1013.1hPa Calm   6.0mph /  9.7km/h 60% 0.20in /  5.1mm
19:15 73.9 °F /  23.3 °C 58.7 °F /  14.8 °C 29.92in /  1013.1hPa NW 1.0mph /  1.6km/h 6.0mph /  9.7km/h 59% 0.20in /  5.1mm
19:20 73.4 °F /  23 °C 59.1 °F /  15.1 °C 29.92in /  1013.1hPa Calm   6.0mph /  9.7km/h 61% 0.20in /  5.1mm
19:25 73.0 °F /  22.8 °C 61.0 °F /  16.1 °C 29.92in /  1013.1hPa Calm   2.0mph /  3.2km/h 66% 0.20in /  5.1mm
19:30 72.6 °F /  22.6 °C 58.9 °F /  14.9 °C 29.92in /  1013.1hPa Calm   2.0mph /  3.2km/h 62% 0.20in /  5.1mm
19:40 71.8 °F /  22.1 °C 59.0 °F /  15 °C 29.92in /  1013.1hPa Calm   4.0mph /  6.4km/h 64% 0.20in /  5.1mm
19:45 71.3 °F /  21.8 °C 59.4 °F /  15.2 °C 29.92in /  1013.1hPa Calm   4.0mph /  6.4km/h 66% 0.20in /  5.1mm
19:55 70.1 °F /  21.2 °C 59.5 °F /  15.3 °C 29.92in /  1013.1hPa Calm   1.0mph /  1.6km/h 69% 0.20in /  5.1mm
20:00 69.3 °F /  20.7 °C 58.7 °F /  14.8 °C 29.92in /  1013.1hPa Calm   1.0mph /  1.6km/h 69% 0.20in /  5.1mm
20:10 67.5 °F /  19.7 °C 57.8 °F /  14.3 °C 29.92in /  1013.1hPa Calm   2.0mph /  3.2km/h 71% 0.20in /  5.1mm
20:15 66.6 °F /  19.2 °C 57.7 °F /  14.3 °C 29.92in /  1013.1hPa Calm     73% 0.20in /  5.1mm
20:20 65.6 °F /  18.7 °C 57.5 °F /  14.2 °C 29.92in /  1013.1hPa Calm     75% 0.20in /  5.1mm
20:25 64.5 °F /  18.1 °C 56.8 °F /  13.8 °C 29.92in /  1013.1hPa Calm   1.0mph /  1.6km/h 76% 0.20in /  5.1mm
20:30 63.5 °F /  17.5 °C 56.9 °F /  13.8 °C 29.93in /  1013.4hPa Calm   1.0mph /  1.6km/h 79% 0.20in /  5.1mm
20:35 62.7 °F /  17.1 °C 56.4 °F /  13.6 °C 29.93in /  1013.4hPa Calm     80% 0.20in /  5.1mm
20:40 62.0 °F /  16.7 °C 56.1 °F /  13.4 °C 29.93in /  1013.4hPa Calm     81% 0.20in /  5.1mm
20:45 61.4 °F /  16.3 °C 55.9 °F /  13.3 °C 29.93in /  1013.4hPa Calm     82% 0.20in /  5.1mm
20:50 60.9 °F /  16.1 °C 55.4 °F /  13 °C 29.94in /  1013.8hPa Calm     82% 0.20in /  5.1mm
20:55 60.6 °F /  15.9 °C 55.4 °F /  13 °C 29.94in /  1013.8hPa Calm     83% 0.20in /  5.1mm
21:00 60.3 °F /  15.7 °C 55.1 °F /  12.8 °C 29.94in /  1013.8hPa Calm     83% 0.20in /  5.1mm
21:05 60.1 °F /  15.6 °C 55.3 °F /  12.9 °C 29.94in /  1013.8hPa Calm     84% 0.20in /  5.1mm
21:10 59.9 °F /  15.5 °C 55.4 °F /  13 °C 29.94in /  1013.8hPa Calm     85% 0.20in /  5.1mm
21:15 59.5 °F /  15.3 °C 55.0 °F /  12.8 °C 29.95in /  1014.1hPa Calm     85% 0.20in /  5.1mm
21:20 59.3 °F /  15.2 °C 54.8 °F /  12.7 °C 29.95in /  1014.1hPa Calm     85% 0.20in /  5.1mm
21:25 59.0 °F /  15 °C 54.8 °F /  12.7 °C 29.95in /  1014.1hPa Calm     86% 0.20in /  5.1mm
21:30 59.0 °F /  15 °C 54.8 °F /  12.7 °C 29.95in /  1014.1hPa Calm     86% 0.20in /  5.1mm
21:40 58.6 °F /  14.8 °C 54.1 °F /  12.3 °C 29.95in /  1014.1hPa Calm     85% 0.20in /  5.1mm
21:45 58.6 °F /  14.8 °C 54.1 °F /  12.3 °C 29.96in /  1014.4hPa Calm     85% 0.20in /  5.1mm
21:50 58.5 °F /  14.7 °C 54.0 °F /  12.2 °C 29.96in /  1014.4hPa Calm   1.0mph /  1.6km/h 85% 0.20in /  5.1mm
21:55 58.4 °F /  14.7 °C 54.2 °F /  12.3 °C 29.96in /  1014.4hPa Calm   1.0mph /  1.6km/h 86% 0.20in /  5.1mm
22:00 58.3 °F /  14.6 °C 54.1 °F /  12.3 °C 29.96in /  1014.4hPa Calm   1.0mph /  1.6km/h 86% 0.20in /  5.1mm
22:05 58.2 °F /  14.6 °C 54.0 °F /  12.2 °C 29.96in /  1014.4hPa Calm   1.0mph /  1.6km/h 86% 0.20in /  5.1mm
22:10 58.2 °F /  14.6 °C 54.0 °F /  12.2 °C 29.97in /  1014.8hPa Calm     86% 0.20in /  5.1mm
22:15 58.1 °F /  14.5 °C 53.9 °F /  12.2 °C 29.97in /  1014.8hPa Calm     86% 0.20in /  5.1mm
22:20 58.0 °F /  14.4 °C 53.8 °F /  12.1 °C 29.97in /  1014.8hPa Calm     86% 0.20in /  5.1mm
22:25 57.8 °F /  14.3 °C 53.6 °F /  12 °C 29.97in /  1014.8hPa Calm     86% 0.20in /  5.1mm
22:30 57.7 °F /  14.3 °C 53.5 °F /  11.9 °C 29.97in /  1014.8hPa Calm     86% 0.20in /  5.1mm
22:35 57.7 °F /  14.3 °C 53.9 °F /  12.2 °C 29.97in /  1014.8hPa Calm     87% 0.20in /  5.1mm
22:40 57.8 °F /  14.3 °C 54.0 °F /  12.2 °C 29.97in /  1014.8hPa Calm     87% 0.20in /  5.1mm
22:45 57.7 °F /  14.3 °C 53.9 °F /  12.2 °C 29.97in /  1014.8hPa Calm   1.0mph /  1.6km/h 87% 0.20in /  5.1mm
22:50 57.7 °F /  14.3 °C 53.9 °F /  12.2 °C 29.97in /  1014.8hPa Calm   1.0mph /  1.6km/h 87% 0.20in /  5.1mm
22:55 57.7 °F /  14.3 °C 53.9 °F /  12.2 °C 29.97in /  1014.8hPa Calm   1.0mph /  1.6km/h 87% 0.20in /  5.1mm
23:00 57.7 °F /  14.3 °C 53.9 °F /  12.2 °C 29.97in /  1014.8hPa Calm   2.0mph /  3.2km/h 87% 0.20in /  5.1mm
23:05 57.7 °F /  14.3 °C 53.9 °F /  12.2 °C 29.97in /  1014.8hPa Calm   2.0mph /  3.2km/h 87% 0.20in /  5.1mm
23:10 57.8 °F /  14.3 °C 54.3 °F /  12.4 °C 29.97in /  1014.8hPa Calm   2.0mph /  3.2km/h 88% 0.20in /  5.1mm
23:15 57.9 °F /  14.4 °C 54.4 °F /  12.4 °C 29.97in /  1014.8hPa Calm   2.0mph /  3.2km/h 88% 0.20in /  5.1mm
23:20 58.1 °F /  14.5 °C 54.3 °F /  12.4 °C 29.97in /  1014.8hPa Calm     87% 0.20in /  5.1mm
23:25 58.3 °F /  14.6 °C 54.5 °F /  12.5 °C 29.97in /  1014.8hPa Calm   1.0mph /  1.6km/h 87% 0.20in /  5.1mm
23:30 58.4 °F /  14.7 °C 54.5 °F /  12.5 °C 29.98in /  1015.1hPa Calm   1.0mph /  1.6km/h 87% 0.20in /  5.1mm
23:35 58.7 °F /  14.8 °C 54.8 °F /  12.7 °C 29.98in /  1015.1hPa Calm   1.0mph /  1.6km/h 87% 0.20in /  5.1mm
23:40 59.0 °F /  15 °C 54.8 °F /  12.7 °C 29.98in /  1015.1hPa Calm   3.0mph /  4.8km/h 86% 0.20in /  5.1mm
23:45 59.0 °F /  15 °C 54.8 °F /  12.7 °C 29.97in /  1014.8hPa Calm   3.0mph /  4.8km/h 86% 0.20in /  5.1mm
23:50 59.5 °F /  15.3 °C 55.3 °F /  12.9 °C 29.98in /  1015.1hPa Calm   3.0mph /  4.8km/h 86% 0.20in /  5.1mm
23:55 59.8 °F /  15.4 °C 55.3 °F /  12.9 °C 29.97in /  1014.8hPa Calm   1.0mph /  1.6km/h 85% 0.20in /  5.1mm
Westford Weather
Compliments of Weather Underground

 
 
Current Radar Loop:

Copyright © WestfordWeather.net 2007-2014. All rights reserved.